Time;durP1;ratioP1;P1;durP2;ratioP2;P2;SDS_P1;SDS_P2;PMS_P1;PMS_P2;Temp;Humidity;BMP_temperature;BMP_pressure;BME280_temperature;BME280_humidity;BME280_pressure;Samples;Min_cycle;Max_cycle;Signal;HPM_P1;HPM_P2
2023/03/03 00:00:03;;;;;;;14.73;8.15;;;8.30;51.60;;;;;;5054542;28;20021;-76
2023/03/03 00:02:29;;;;;;;17.50;10.00;;;8.30;51.50;;;;;;5054635;28;20379;-75
2023/03/03 00:04:55;;;;;;;17.83;9.45;;;8.30;52.20;;;;;;5054719;28;20021;-75
2023/03/03 00:07:23;;;;;;;21.85;9.82;;;8.30;52.10;;;;;;5054559;28;20382;-75
2023/03/03 00:09:49;;;;;;;18.27;9.68;;;8.20;52.20;;;;;;5053896;28;20098;-75
2023/03/03 00:12:26;;;;;;;23.00;9.32;;;8.20;52.00;;;;;;5036507;28;20021;-75
2023/03/03 00:14:53;;;;;;;34.05;11.80;;;8.10;51.90;;;;;;5054223;28;20025;-75
2023/03/03 00:17:29;;;;;;;22.13;10.88;;;8.10;52.50;;;;;;5054133;28;20035;-76
2023/03/03 00:19:55;;;;;;;18.75;9.73;;;8.00;52.60;;;;;;5054450;28;20053;-75
2023/03/03 00:22:35;;;;;;;17.17;9.27;;;8.00;52.50;;;;;;5054242;28;20074;-75
2023/03/03 00:25:27;;;;;;;14.50;8.77;;;8.00;52.40;;;;;;5036147;28;20029;-77
2023/03/03 00:27:53;;;;;;;18.42;9.68;;;7.90;52.40;;;;;;5045442;28;20426;-76
2023/03/03 00:30:24;;;;;;;21.77;10.52;;;7.90;52.20;;;;;;5054101;28;20096;-76
2023/03/03 00:32:51;;;;;;;18.73;9.50;;;7.90;52.50;;;;;;5053614;28;20106;-76
2023/03/03 00:35:38;;;;;;;19.35;10.00;;;7.90;52.70;;;;;;5035783;28;20493;-75
2023/03/03 00:38:17;;;;;;;24.00;10.80;;;7.80;52.80;;;;;;5054131;28;20163;-75
2023/03/03 00:40:44;;;;;;;20.38;11.13;;;7.80;52.90;;;;;;5053886;28;20021;-75
2023/03/03 00:43:21;;;;;;;21.88;10.77;;;7.80;53.10;;;;;;5053852;28;20032;-75
2023/03/03 00:45:51;;;;;;;20.77;9.15;;;7.80;53.00;;;;;;5053563;28;20043;-76
2023/03/03 00:48:30;;;;;;;16.27;9.45;;;7.80;52.80;;;;;;5053722;28;20520;-76
2023/03/03 00:50:59;;;;;;;24.27;10.48;;;7.70;52.80;;;;;;5053483;28;20052;-76
2023/03/03 00:53:28;;;;;;;28.17;11.32;;;7.70;53.30;;;;;;5033741;28;20018;-76
2023/03/03 00:55:54;;;;;;;21.45;10.52;;;7.70;54.10;;;;;;5033726;28;20030;-77
2023/03/03 00:58:21;;;;;;;27.70;11.38;;;7.60;53.60;;;;;;5033905;28;20024;-77
2023/03/03 01:00:51;;;;;;;24.58;9.95;;;7.60;53.60;;;;;;5046829;28;20032;-76
2023/03/03 01:03:25;;;;;;;16.08;9.00;;;7.50;53.50;;;;;;5053084;28;20024;-76
2023/03/03 01:05:51;;;;;;;;;;;7.50;53.50;;;;;;5051596;28;20021;-76
2023/03/03 01:08:18;;;;;;;17.80;8.95;;;7.50;52.80;;;;;;5048746;28;19909;-77
2023/03/03 01:10:51;;;;;;;17.60;8.27;;;7.50;53.10;;;;;;5053487;28;20032;-76
2023/03/03 01:13:17;;;;;;;18.65;9.00;;;7.50;53.20;;;;;;5040143;28;20383;-77
2023/03/03 01:15:44;;;;;;;17.05;9.75;;;7.50;53.30;;;;;;5033699;28;20451;-76
2023/03/03 01:18:11;;;;;;;17.73;9.25;;;7.40;53.50;;;;;;5033346;28;20065;-76
2023/03/03 01:20:38;;;;;;;17.98;9.20;;;7.40;53.60;;;;;;5032905;28;20083;-76
2023/03/03 01:23:04;;;;;;;18.98;9.82;;;7.40;53.80;;;;;;5032925;28;20108;-76
2023/03/03 01:25:31;;;;;;;17.30;9.13;;;7.30;53.70;;;;;;5038100;28;20500;-76
2023/03/03 01:27:57;;;;;;;18.40;9.55;;;7.30;53.70;;;;;;5053231;28;20033;-76
2023/03/03 01:30:23;;;;;;;18.05;8.52;;;7.30;53.80;;;;;;5053093;28;20158;-76
2023/03/03 01:32:48;;;;;;;15.13;8.57;;;7.30;53.70;;;;;;5053098;28;20447;-76
2023/03/03 01:35:14;;;;;;;16.50;8.98;;;7.30;53.80;;;;;;5053034;28;20025;-77
2023/03/03 01:37:40;;;;;;;17.30;8.57;;;7.30;53.90;;;;;;5052993;28;20025;-76
2023/03/03 01:40:12;;;;;;;17.52;9.20;;;7.30;53.90;;;;;;5053085;28;20060;-76
2023/03/03 01:42:37;;;;;;;22.90;9.85;;;7.30;54.20;;;;;;5053242;28;20017;-77
2023/03/03 01:45:22;;;;;;;18.60;9.75;;;7.20;54.40;;;;;;5053134;28;20101;-76
2023/03/03 01:47:55;;;;;;;15.57;8.20;;;7.20;54.20;;;;;;5053130;28;20029;-76
2023/03/03 01:50:37;;;;;;;14.68;8.07;;;7.20;54.00;;;;;;5052569;28;20021;-76
2023/03/03 01:53:08;;;;;;;18.15;9.00;;;7.20;54.10;;;;;;5052699;28;20114;-76
2023/03/03 01:55:38;;;;;;;17.17;8.75;;;7.30;54.30;;;;;;5053004;28;20025;-76
2023/03/03 01:58:21;;;;;;;15.95;9.20;;;7.30;54.40;;;;;;5052876;28;20413;-76
2023/03/03 02:00:52;;;;;;;29.50;11.35;;;7.30;54.40;;;;;;5049342;28;20024;-76
2023/03/03 02:03:21;;;;;;;23.80;10.13;;;7.30;54.70;;;;;;5036638;28;20075;-77
2023/03/03 02:05:48;;;;;;;28.55;11.40;;;7.30;55.00;;;;;;5052734;28;20024;-76
2023/03/03 02:08:17;;;;;;;23.42;10.60;;;7.20;55.20;;;;;;5052719;28;20021;-77
2023/03/03 02:10:45;;;;;;;17.42;9.73;;;7.20;55.40;;;;;;5052623;28;20052;-77
2023/03/03 02:13:11;;;;;;;18.42;9.02;;;7.30;55.40;;;;;;5052750;28;20029;-76
2023/03/03 02:15:37;;;;;;;24.55;10.07;;;7.30;55.30;;;;;;5051364;28;20036;-77
2023/03/03 02:18:07;;;;;;;25.85;9.68;;;7.40;55.30;;;;;;5052114;28;20082;-77
2023/03/03 02:20:50;;;;;;;22.27;10.23;;;7.40;55.10;;;;;;5052789;28;20029;-77
2023/03/03 02:23:20;;;;;;;18.85;10.25;;;7.50;55.10;;;;;;5052362;28;20104;-77
2023/03/03 02:25:56;;;;;;;23.77;9.68;;;7.60;55.10;;;;;;5052434;28;20048;-77
2023/03/03 02:28:31;;;;;;;16.20;8.63;;;7.60;55.10;;;;;;5052577;28;20035;-76
2023/03/03 02:30:58;;;;;;;17.77;9.57;;;7.60;54.90;;;;;;5034760;28;20104;-76
2023/03/03 02:33:24;;;;;;;26.85;13.25;;;7.70;54.70;;;;;;5036520;28;20473;-77
2023/03/03 02:35:51;;;;;;;20.80;11.52;;;7.70;54.70;;;;;;5056250;28;20049;-76
2023/03/03 02:38:20;;;;;;;21.80;10.82;;;7.80;54.70;;;;;;5056114;28;20494;-76
2023/03/03 02:40:59;;;;;;;20.45;11.73;;;7.80;54.50;;;;;;5055777;28;20051;-77
2023/03/03 02:43:37;;;;;;;21.70;10.55;;;7.80;54.50;;;;;;5055535;28;20021;-77
2023/03/03 02:46:03;;;;;;;17.88;9.98;;;7.90;54.40;;;;;;5051687;28;20020;-77
2023/03/03 02:48:29;;;;;;;19.40;8.73;;;7.90;54.30;;;;;;5036026;28;20025;-77
2023/03/03 02:50:55;;;;;;;19.73;9.98;;;7.90;54.30;;;;;;5038053;28;20511;-77
2023/03/03 02:53:20;;;;;;;20.08;10.57;;;7.90;54.20;;;;;;5034259;28;20082;-77
2023/03/03 02:55:46;;;;;;;18.60;10.25;;;8.00;54.80;;;;;;5035902;28;20080;-76
2023/03/03 02:58:12;;;;;;;20.98;10.82;;;7.90;54.80;;;;;;5034545;28;20025;-77
2023/03/03 03:00:38;;;;;;;19.65;9.70;;;7.90;54.70;;;;;;5041937;28;20108;-76
2023/03/03 03:03:04;;;;;;;18.98;9.48;;;7.90;54.70;;;;;;5036824;28;20021;-76
2023/03/03 03:05:29;;;;;;;15.70;8.98;;;7.90;54.60;;;;;;5050041;28;20047;-76
2023/03/03 03:07:55;;;;;;;22.90;10.88;;;7.80;54.60;;;;;;5055646;28;20037;-77
2023/03/03 03:10:21;;;;;;;20.08;9.60;;;7.80;54.60;;;;;;5055706;28;20025;-76
2023/03/03 03:12:47;;;;;;;25.13;11.25;;;7.80;54.50;;;;;;5055492;28;20429;-76
2023/03/03 03:15:13;;;;;;;19.08;9.80;;;7.80;55.40;;;;;;5055222;28;20032;-77
2023/03/03 03:17:39;;;;;;;17.73;10.57;;;7.80;54.80;;;;;;5055330;28;20025;-77
2023/03/03 03:20:05;;;;;;;22.40;10.23;;;7.80;54.80;;;;;;5055285;28;20028;-76
2023/03/03 03:22:31;;;;;;;18.40;9.57;;;7.80;54.90;;;;;;5037482;28;20033;-76
2023/03/03 03:24:56;;;;;;;23.60;10.68;;;7.80;54.90;;;;;;5055249;28;20451;-76
2023/03/03 03:27:22;;;;;;;20.98;10.45;;;7.70;55.00;;;;;;5049476;28;20053;-77
2023/03/03 03:29:48;;;;;;;23.50;10.73;;;7.70;54.80;;;;;;5037323;28;20071;-77
2023/03/03 03:32:13;;;;;;;16.98;9.80;;;7.70;54.80;;;;;;5055082;28;20021;-76
2023/03/03 03:34:39;;;;;;;21.50;10.30;;;7.70;54.70;;;;;;5054845;28;20096;-76
2023/03/03 03:37:05;;;;;;;24.27;10.98;;;7.70;54.90;;;;;;5054999;28;20020;-77
2023/03/03 03:39:31;;;;;;;19.25;10.10;;;7.70;54.90;;;;;;5055183;28;20041;-77
2023/03/03 03:41:57;;;;;;;21.50;10.32;;;7.70;54.80;;;;;;5054946;28;20020;-76
2023/03/03 03:44:24;;;;;;;18.58;10.02;;;7.70;55.00;;;;;;5053865;28;20029;-77
2023/03/03 03:46:50;;;;;;;23.90;10.48;;;7.70;55.00;;;;;;5036855;28;20021;-76
2023/03/03 03:49:15;;;;;;;21.45;10.23;;;7.70;54.80;;;;;;5054769;28;20095;-77
2023/03/03 03:51:41;;;;;;;20.65;11.35;;;7.70;54.80;;;;;;5052986;28;20463;-76
2023/03/03 03:54:07;;;;;;;18.42;10.48;;;7.70;54.70;;;;;;5054895;28;20480;-76
2023/03/03 03:56:33;;;;;;;23.00;10.95;;;7.70;54.70;;;;;;5054571;28;20540;-76
2023/03/03 03:58:59;;;;;;;21.95;11.15;;;7.60;54.70;;;;;;5054514;28;20048;-77
2023/03/03 04:01:26;;;;;;;25.85;11.40;;;7.60;55.00;;;;;;5054294;28;20451;-76
2023/03/03 04:03:51;;;;;;;29.50;12.95;;;7.60;55.10;;;;;;5054188;28;20033;-77
2023/03/03 04:06:17;;;;;;;23.10;12.55;;;7.50;55.20;;;;;;5054372;28;20035;-76
2023/03/03 04:08:43;;;;;;;24.77;12.27;;;7.40;55.70;;;;;;5048776;28;20474;-77
2023/03/03 04:11:09;;;;;;;19.33;10.52;;;7.40;55.50;;;;;;5054588;28;20079;-77
2023/03/03 04:13:35;;;;;;;20.17;10.88;;;7.40;55.40;;;;;;5054311;28;20100;-77
2023/03/03 04:16:01;;;;;;;22.35;11.15;;;7.30;55.40;;;;;;5054689;28;20052;-76
2023/03/03 04:18:27;;;;;;;26.63;11.75;;;7.20;55.30;;;;;;5054097;28;20082;-77
2023/03/03 04:20:54;;;;;;;17.10;10.18;;;7.20;55.50;;;;;;5054097;28;20013;-76
2023/03/03 04:23:20;;;;;;;23.45;10.60;;;7.20;55.40;;;;;;5054171;28;20049;-76
2023/03/03 04:25:47;;;;;;;18.50;10.20;;;7.10;55.40;;;;;;5053441;28;20049;-76
2023/03/03 04:28:14;;;;;;;24.55;10.63;;;7.10;55.50;;;;;;5048446;28;20103;-76
2023/03/03 04:30:40;;;;;;;21.17;11.93;;;7.10;55.70;;;;;;5054124;28;20029;-76
2023/03/03 04:33:06;;;;;;;20.40;11.38;;;7.10;55.90;;;;;;5053812;28;20359;-77
2023/03/03 04:35:31;;;;;;;27.67;11.02;;;7.00;56.10;;;;;;5033987;28;20033;-76
2023/03/03 04:37:57;;;;;;;25.63;12.93;;;7.00;56.50;;;;;;5034051;28;20026;-76
2023/03/03 04:40:23;;;;;;;31.13;11.50;;;6.90;56.70;;;;;;5033742;28;20045;-76
2023/03/03 04:42:49;;;;;;;23.00;10.77;;;6.90;56.70;;;;;;5033787;28;20056;-76
2023/03/03 04:45:15;;;;;;;18.15;10.18;;;6.90;56.70;;;;;;5016074;28;20440;-77
2023/03/03 04:47:41;;;;;;;19.50;9.98;;;7.00;56.80;;;;;;5033663;28;20036;-77
2023/03/03 04:50:08;;;;;;;21.65;10.73;;;7.00;56.70;;;;;;5029134;28;20115;-76
2023/03/03 04:52:34;;;;;;;17.92;10.45;;;7.00;56.70;;;;;;5053362;28;20021;-76
2023/03/03 04:55:00;;;;;;;25.45;11.55;;;7.00;56.60;;;;;;5053394;28;20328;-76
2023/03/03 04:57:26;;;;;;;24.83;11.00;;;7.10;56.60;;;;;;5035595;28;20142;-76
2023/03/03 04:59:51;;;;;;;17.67;10.20;;;7.10;56.50;;;;;;5035615;28;20040;-76
2023/03/03 05:02:18;;;;;;;35.25;11.45;;;7.10;56.30;;;;;;5053538;28;20025;-76
2023/03/03 05:04:43;;;;;;;22.33;11.50;;;7.10;56.40;;;;;;5056158;28;20105;-76
2023/03/03 05:07:09;;;;;;;27.70;11.65;;;7.10;56.30;;;;;;5056249;28;20162;-76
2023/03/03 05:09:35;;;;;;;27.60;12.18;;;7.10;56.30;;;;;;5056109;28;20539;-75
2023/03/03 05:12:01;;;;;;;20.65;10.57;;;7.10;56.30;;;;;;5056151;28;20033;-76
2023/03/03 05:14:27;;;;;;;22.70;10.35;;;7.00;56.10;;;;;;5054367;28;20363;-76
2023/03/03 05:16:53;;;;;;;22.13;11.23;;;7.00;56.10;;;;;;5055715;28;20025;-76
2023/03/03 05:19:19;;;;;;;31.65;11.25;;;7.00;56.10;;;;;;5053336;28;20044;-77
2023/03/03 05:21:45;;;;;;;23.58;11.18;;;7.00;56.30;;;;;;5053214;28;20405;-76
2023/03/03 05:24:12;;;;;;;20.88;10.98;;;6.90;56.10;;;;;;5053062;28;20433;-76
2023/03/03 05:26:39;;;;;;;26.45;13.05;;;6.90;56.10;;;;;;5053006;28;20119;-76
2023/03/03 05:29:06;;;;;;;25.65;13.35;;;6.80;56.30;;;;;;5052928;28;20056;-76
2023/03/03 05:31:32;;;;;;;26.50;12.70;;;6.80;56.50;;;;;;5052850;28;20029;-76
2023/03/03 05:33:57;;;;;;;27.02;12.35;;;6.70;56.60;;;;;;5046566;28;20040;-77
2023/03/03 05:36:24;;;;;;;26.52;12.68;;;6.70;56.60;;;;;;5052948;28;20017;-76
2023/03/03 05:38:50;;;;;;;22.98;12.10;;;6.70;56.50;;;;;;5052852;28;20032;-77
2023/03/03 05:41:16;;;;;;;21.13;11.23;;;6.60;56.80;;;;;;5053091;28;20424;-77
2023/03/03 05:43:42;;;;;;;20.73;10.80;;;6.60;56.90;;;;;;5052806;28;20029;-75
2023/03/03 05:46:07;;;;;;;22.27;11.18;;;6.60;56.80;;;;;;5053030;28;20043;-75
2023/03/03 05:48:33;;;;;;;24.80;12.00;;;6.50;56.80;;;;;;5034866;28;20476;-75
2023/03/03 05:50:59;;;;;;;23.67;12.63;;;6.50;57.00;;;;;;5052767;28;20036;-75
2023/03/03 05:53:29;;;;;;;22.52;12.52;;;6.50;57.20;;;;;;5052749;28;20032;-75
2023/03/03 05:55:55;;;;;;;22.90;11.20;;;6.50;57.20;;;;;;5034825;28;20390;-74
2023/03/03 05:58:21;;;;;;;28.67;12.52;;;6.40;57.10;;;;;;5052433;28;20510;-75
2023/03/03 06:00:47;;;;;;;21.90;11.77;;;6.40;57.40;;;;;;5052567;28;20040;-75
2023/03/03 06:03:13;;;;;;;25.05;11.38;;;6.40;57.60;;;;;;5034212;28;20033;-75
2023/03/03 06:05:38;;;;;;;23.60;12.07;;;6.40;57.60;;;;;;5051854;28;20021;-75
2023/03/03 06:08:05;;;;;;;22.98;11.88;;;6.40;57.60;;;;;;5036347;28;20481;-75
2023/03/03 06:10:30;;;;;;;25.35;13.55;;;6.40;57.60;;;;;;5056563;28;20036;-75
2023/03/03 06:12:57;;;;;;;26.00;13.65;;;6.40;57.90;;;;;;5056564;28;20031;-75
2023/03/03 06:15:23;;;;;;;23.45;11.32;;;6.40;58.00;;;;;;5038376;28;20106;-74
2023/03/03 06:17:49;;;;;;;29.42;14.10;;;6.40;58.00;;;;;;5056466;28;20033;-75
2023/03/03 06:20:14;;;;;;;26.77;12.55;;;6.40;58.20;;;;;;5056377;28;20027;-75
2023/03/03 06:22:40;;;;;;;22.52;13.32;;;6.40;58.20;;;;;;5056307;28;20470;-75
2023/03/03 06:25:06;;;;;;;23.35;12.85;;;6.40;58.30;;;;;;5037618;28;20025;-75
2023/03/03 06:27:32;;;;;;;24.05;12.77;;;6.40;58.40;;;;;;5050373;28;20088;-75
2023/03/03 06:29:58;;;;;;;25.95;12.70;;;6.40;58.50;;;;;;5055747;28;20455;-75
2023/03/03 06:32:24;;;;;;;22.90;12.57;;;6.40;58.50;;;;;;5038670;28;20026;-75
2023/03/03 06:34:50;;;;;;;20.30;11.30;;;6.40;58.40;;;;;;5049294;28;20532;-77
2023/03/03 06:37:15;;;;;;;20.52;12.10;;;6.40;58.30;;;;;;5056029;28;20039;-77
2023/03/03 06:39:42;;;;;;;31.80;13.68;;;6.50;58.40;;;;;;5055907;28;20038;-74
2023/03/03 06:42:08;;;;;;;29.35;12.52;;;6.50;58.60;;;;;;5055948;28;20021;-77
2023/03/03 06:44:35;;;;;;;23.60;12.10;;;6.50;58.60;;;;;;5055876;28;20025;-77
2023/03/03 06:47:01;;;;;;;23.10;11.40;;;6.60;58.60;;;;;;5038077;28;20044;-74
2023/03/03 06:49:27;;;;;;;24.73;12.40;;;6.60;58.50;;;;;;5055748;28;20078;-75
2023/03/03 06:51:53;;;;;;;24.92;12.13;;;6.70;58.50;;;;;;5055403;28;20025;-75
2023/03/03 06:54:23;;;;;;;22.25;12.77;;;6.80;58.50;;;;;;5037922;28;20151;-75
2023/03/03 06:56:54;;;;;;;22.67;11.57;;;6.80;58.40;;;;;;5056159;28;20025;-75
2023/03/03 06:59:20;;;;;;;31.00;12.15;;;6.90;58.40;;;;;;5055637;28;20047;-75
2023/03/03 07:01:48;;;;;;;24.60;11.80;;;7.00;58.40;;;;;;5055524;28;20021;-75
2023/03/03 07:04:30;;;;;;;21.20;12.23;;;7.10;58.30;;;;;;5055123;28;20422;-75
2023/03/03 07:06:58;;;;;;;26.92;11.15;;;7.10;58.30;;;;;;5055269;28;20025;-75
2023/03/03 07:09:27;;;;;;;30.75;13.00;;;7.20;58.10;;;;;;5055247;28;20027;-76
2023/03/03 07:12:00;;;;;;;28.60;13.60;;;7.30;58.10;;;;;;5055406;28;20033;-76
2023/03/03 07:14:27;;;;;;;22.38;12.57;;;7.30;58.00;;;;;;5055324;28;20115;-75
2023/03/03 07:16:59;;;;;;;30.30;13.02;;;7.40;57.90;;;;;;5055287;28;20494;-76
2023/03/03 07:19:34;;;;;;;32.78;12.98;;;7.50;57.70;;;;;;5035997;28;20079;-76
2023/03/03 07:22:21;;;;;;;24.13;13.30;;;7.50;57.50;;;;;;5045269;28;20500;-76
2023/03/03 07:24:52;;;;;;;27.50;13.23;;;7.60;57.50;;;;;;5055338;28;20377;-76
2023/03/03 07:27:18;;;;;;;39.55;14.80;;;7.70;57.50;;;;;;5055116;28;20045;-77
2023/03/03 07:29:50;;;;;;;32.78;14.35;;;7.70;57.40;;;;;;5055264;28;20029;-76
2023/03/03 07:32:37;;;;;;;28.60;13.13;;;7.80;57.30;;;;;;5055306;28;20047;-77
2023/03/03 07:35:28;;;;;;;29.77;15.05;;;7.80;57.10;;;;;;5054987;28;20079;-77
2023/03/03 07:37:54;;;;;;;31.52;12.95;;;7.90;57.00;;;;;;5054380;28;20037;-76
2023/03/03 07:40:45;;;;;;;47.90;14.35;;;7.90;56.80;;;;;;5037105;28;20025;-77
2023/03/03 07:43:27;;;;;;;23.58;12.63;;;8.00;56.80;;;;;;5055136;28;20500;-76
2023/03/03 07:46:18;;;;;;;25.77;13.60;;;8.00;56.60;;;;;;5054539;28;20375;-76
2023/03/03 07:48:44;;;;;;;22.40;12.88;;;8.00;56.60;;;;;;5026506;28;20040;-76
2023/03/03 07:51:26;;;;;;;27.58;12.68;;;8.10;56.50;;;;;;5034923;28;20052;-76
2023/03/03 07:54:13;;;;;;;27.60;12.40;;;8.10;56.50;;;;;;5034797;28;20382;-76
2023/03/03 07:56:38;;;;;;;21.75;12.68;;;8.20;56.50;;;;;;5034805;28;20075;-76
2023/03/03 07:59:25;;;;;;;26.13;13.07;;;8.20;56.50;;;;;;5051501;28;20033;-77
2023/03/03 08:01:55;;;;;;;29.20;14.73;;;8.30;56.50;;;;;;5054364;28;20025;-77
2023/03/03 08:04:23;;;;;;;24.15;14.30;;;8.40;56.40;;;;;;5053770;28;20048;-76
2023/03/03 08:06:55;;;;;;;28.08;13.95;;;8.40;56.30;;;;;;5047505;28;20082;-77
2023/03/03 08:09:29;;;;;;;25.77;14.27;;;8.50;56.20;;;;;;5054374;28;20040;-77
2023/03/03 08:12:26;;;;;;;25.42;14.05;;;8.50;56.00;;;;;;5054117;28;20025;-77
2023/03/03 08:14:54;;;;;;;29.40;14.85;;;8.60;55.90;;;;;;5054230;28;20024;-77
2023/03/03 08:17:22;;;;;;;27.25;14.00;;;8.70;55.70;;;;;;5052563;28;20036;-77
2023/03/03 08:19:52;;;;;;;26.02;14.05;;;8.70;55.60;;;;;;5054164;28;20029;-77
2023/03/03 08:22:29;;;;;;;21.25;12.10;;;8.80;55.60;;;;;;5053821;28;20021;-76
2023/03/03 08:24:55;;;;;;;23.52;12.02;;;8.80;55.60;;;;;;5054500;28;20025;-77
2023/03/03 08:27:20;;;;;;;23.55;13.82;;;8.80;55.50;;;;;;5054068;28;20057;-77
2023/03/03 08:29:46;;;;;;;23.48;13.60;;;8.90;55.50;;;;;;5042133;28;20479;-77
2023/03/03 08:32:12;;;;;;;27.20;12.90;;;8.90;55.40;;;;;;5053153;28;20120;-76
2023/03/03 08:34:38;;;;;;;31.65;15.07;;;8.90;55.40;;;;;;5053040;28;20032;-77
2023/03/03 08:37:04;;;;;;;25.88;15.05;;;9.00;55.30;;;;;;5053998;28;20410;-77
2023/03/03 08:39:30;;;;;;;24.58;13.65;;;9.10;55.40;;;;;;5053395;28;20028;-77
2023/03/03 08:41:56;;;;;;;25.95;13.57;;;9.10;55.30;;;;;;5053869;28;20017;-77
2023/03/03 08:44:22;;;;;;;26.48;14.00;;;9.10;55.20;;;;;;5053624;28;20508;-77
2023/03/03 08:46:48;;;;;;;23.38;13.55;;;9.20;55.10;;;;;;5035717;28;20064;-77
2023/03/03 08:49:14;;;;;;;31.33;15.30;;;9.20;54.90;;;;;;5053142;28;20139;-76
2023/03/03 08:51:40;;;;;;;32.78;16.02;;;9.30;55.00;;;;;;5053442;28;20423;-77
2023/03/03 08:54:06;;;;;;;31.02;15.30;;;9.30;54.80;;;;;;5035692;28;20159;-77
2023/03/03 08:56:31;;;;;;;30.33;13.95;;;9.40;54.80;;;;;;5035656;28;20037;-77
2023/03/03 08:58:57;;;;;;;26.67;15.45;;;9.50;54.70;;;;;;5053447;28;20573;-77
2023/03/03 09:01:23;;;;;;;32.20;15.20;;;9.50;54.50;;;;;;5053563;28;20122;-77
2023/03/03 09:03:49;;;;;;;31.30;15.70;;;9.60;54.40;;;;;;5052754;28;20104;-77
2023/03/03 09:06:14;;;;;;;29.00;15.93;;;9.60;54.10;;;;;;5053068;28;20017;-76
2023/03/03 09:08:40;;;;;;;28.73;15.63;;;9.70;54.00;;;;;;5053299;28;20475;-77
2023/03/03 09:11:13;;;;;;;30.67;17.38;;;9.70;53.90;;;;;;5035421;28;20102;-77
2023/03/03 09:13:39;;;;;;;31.77;17.08;;;9.80;53.80;;;;;;5053313;28;20389;-77
2023/03/03 09:16:15;;;;;;;31.00;16.60;;;9.80;53.60;;;;;;5053082;28;20021;-77
2023/03/03 09:18:42;;;;;;;49.28;17.00;;;9.80;53.50;;;;;;5053125;28;20129;-76
2023/03/03 09:21:25;;;;;;;33.30;18.05;;;9.90;53.40;;;;;;5052959;28;20091;-77
2023/03/03 09:23:56;;;;;;;33.67;18.50;;;10.00;53.40;;;;;;5040180;28;20018;-77
2023/03/03 09:26:29;;;;;;;30.95;16.33;;;10.10;53.00;;;;;;5033138;28;20081;-76
2023/03/03 09:29:14;;;;;;;32.45;17.02;;;10.10;53.00;;;;;;5044702;28;20042;-77
2023/03/03 09:31:50;;;;;;;36.10;18.10;;;10.20;53.00;;;;;;5042637;28;20628;-77
2023/03/03 09:34:22;;;;;;;32.13;18.27;;;10.20;52.90;;;;;;5040789;28;20028;-77
2023/03/03 09:36:49;;;;;;;30.50;17.13;;;10.30;52.70;;;;;;5052884;28;20033;-76
2023/03/03 09:39:24;;;;;;;30.77;17.60;;;10.40;52.70;;;;;;5053084;28;20028;-77
2023/03/03 09:41:52;;;;;;;;;;;10.40;52.50;;;;;;5053597;28;20044;-77
2023/03/03 09:44:36;;;;;;;30.92;17.27;;;10.50;52.80;;;;;;5056929;28;19905;-77
2023/03/03 09:47:35;;;;;;;30.02;17.88;;;10.60;52.20;;;;;;5039188;28;20025;-77
2023/03/03 09:50:28;;;;;;;38.72;20.50;;;10.60;52.20;;;;;;5048552;28;20490;-77
2023/03/03 09:53:15;;;;;;;35.95;19.23;;;10.60;51.70;;;;;;5052515;28;20474;-77
2023/03/03 09:55:51;;;;;;;43.10;20.02;;;10.70;51.70;;;;;;5057129;28;20409;-77
2023/03/03 09:58:26;;;;;;;40.03;19.65;;;10.70;51.60;;;;;;5057258;28;20470;-77
2023/03/03 10:00:57;;;;;;;32.08;17.63;;;10.80;51.80;;;;;;5056967;28;20029;-77
2023/03/03 10:03:51;;;;;;;33.22;17.77;;;10.90;51.80;;;;;;5056542;28;20079;-77
2023/03/03 10:06:24;;;;;;;39.78;18.60;;;11.00;51.60;;;;;;5056756;28;20070;-77
2023/03/03 10:09:28;;;;;;;35.67;19.57;;;11.00;51.40;;;;;;5056555;28;20111;-77
2023/03/03 10:12:05;;;;;;;37.92;19.42;;;11.10;51.20;;;;;;5037282;28;20498;-77
2023/03/03 10:14:36;;;;;;;34.80;18.90;;;11.20;51.20;;;;;;5036708;28;20601;-77
2023/03/03 10:17:20;;;;;;;32.17;18.88;;;11.30;50.80;;;;;;5035389;28;20482;-77
2023/03/03 10:20:14;;;;;;;30.95;17.13;;;11.30;50.20;;;;;;5036605;28;20625;-77
2023/03/03 10:23:19;;;;;;;28.83;16.27;;;11.40;50.50;;;;;;5042490;28;20024;-77
2023/03/03 10:26:26;;;;;;;32.03;18.73;;;11.50;50.30;;;;;;5056515;28;20306;-77
2023/03/03 10:29:17;;;;;;;29.35;17.10;;;11.60;50.00;;;;;;5041002;28;20033;-77
2023/03/03 10:31:55;;;;;;;33.08;18.02;;;11.60;50.10;;;;;;5036627;28;20021;-77
2023/03/03 10:34:48;;;;;;;38.92;19.13;;;11.70;49.80;;;;;;5055567;28;20052;-77
2023/03/03 10:38:04;;;;;;;35.08;19.80;;;11.70;49.60;;;;;;5056184;28;20474;-77
2023/03/03 10:40:42;;;;;;;33.25;19.48;;;11.80;49.60;;;;;;4974735;28;20051;-77
2023/03/03 10:44:00;;;;;;;34.22;19.40;;;11.90;49.70;;;;;;4975345;28;20054;-77
2023/03/03 10:46:40;;;;;;;29.02;18.17;;;11.90;49.60;;;;;;4898867;29;20033;-77
2023/03/03 10:49:38;;;;;;;35.90;18.55;;;12.00;49.50;;;;;;4966157;28;20054;-77
2023/03/03 10:52:48;;;;;;;32.17;18.55;;;12.00;49.50;;;;;;4975242;28;20535;-77
2023/03/03 10:55:35;;;;;;;34.65;20.10;;;12.10;49.60;;;;;;4974748;28;20480;-77
2023/03/03 10:58:01;;;;;;;37.25;21.52;;;12.20;49.70;;;;;;4975015;28;20109;-77
2023/03/03 11:00:37;;;;;;;35.50;20.30;;;12.20;49.60;;;;;;4977589;28;20109;-77
2023/03/03 11:03:40;;;;;;;45.53;23.50;;;12.30;49.50;;;;;;4976796;28;20039;-77
2023/03/03 11:06:25;;;;;;;38.58;22.15;;;12.30;48.90;;;;;;4978777;28;20504;-77
2023/03/03 11:08:58;;;;;;;34.05;19.95;;;12.30;48.80;;;;;;4975752;28;20039;-77
2023/03/03 11:11:45;;;;;;;38.85;20.65;;;12.40;49.20;;;;;;4974867;28;20113;-77
2023/03/03 11:14:22;;;;;;;34.78;21.02;;;12.40;49.20;;;;;;4974720;28;20061;-77
2023/03/03 11:17:09;;;;;;;38.55;21.88;;;12.50;49.00;;;;;;5048516;28;20037;-78
2023/03/03 11:19:51;;;;;;;41.72;20.45;;;12.60;49.00;;;;;;5055441;28;20052;-77
2023/03/03 11:22:46;;;;;;;37.65;21.80;;;12.60;49.00;;;;;;5055306;28;20025;-77
2023/03/03 11:25:14;;;;;;;40.20;23.65;;;12.70;48.90;;;;;;5055054;28;20017;-77
2023/03/03 11:27:58;;;;;;;42.50;24.33;;;12.70;48.40;;;;;;5055061;28;20021;-77
2023/03/03 11:30:34;;;;;;;39.78;21.55;;;12.70;48.30;;;;;;5054621;28;20021;-77
2023/03/03 11:33:11;;;;;;;39.97;21.92;;;12.80;48.20;;;;;;5054399;28;20017;-77
2023/03/03 11:35:52;;;;;;;39.55;22.52;;;12.90;48.30;;;;;;5055104;28;20028;-77
2023/03/03 11:38:40;;;;;;;37.05;20.95;;;13.00;47.60;;;;;;5055046;28;20382;-77
2023/03/03 11:41:36;;;;;;;37.10;21.23;;;13.10;47.80;;;;;;5055995;28;20021;-77
2023/03/03 11:44:05;;;;;;;33.38;19.52;;;13.20;47.20;;;;;;5053525;28;20024;-77
2023/03/03 11:46:41;;;;;;;43.22;24.10;;;13.30;47.30;;;;;;5071144;28;20029;-77
2023/03/03 11:49:25;;;;;;;38.13;22.52;;;13.30;46.70;;;;;;5054570;28;20032;-77
2023/03/03 11:52:11;;;;;;;36.63;21.05;;;13.30;46.10;;;;;;5053575;28;20544;-77
2023/03/03 11:54:56;;;;;;;37.65;21.75;;;13.40;45.70;;;;;;5052761;28;20051;-77
2023/03/03 11:57:22;;;;;;;39.22;22.80;;;13.30;45.70;;;;;;5055020;28;20027;-77
2023/03/03 12:00:12;;;;;;;44.75;24.30;;;13.40;45.70;;;;;;5054365;28;20108;-77
2023/03/03 12:02:56;;;;;;;42.05;23.30;;;13.40;44.90;;;;;;5054099;28;20017;-77
2023/03/03 12:05:54;;;;;;;45.95;22.30;;;13.40;45.20;;;;;;5035522;28;20069;-78
2023/03/03 12:08:43;;;;;;;36.60;21.27;;;13.50;45.00;;;;;;4973975;28;20046;-77
2023/03/03 12:11:31;;;;;;;39.63;22.33;;;13.50;44.80;;;;;;4986631;28;20031;-78
2023/03/03 12:14:12;;;;;;;34.58;20.50;;;13.50;44.70;;;;;;4976794;28;20042;-77
2023/03/03 12:17:01;;;;;;;39.08;20.80;;;13.50;44.80;;;;;;4993008;28;20037;-77
2023/03/03 12:20:13;;;;;;;34.05;21.30;;;13.60;44.70;;;;;;4992418;28;20042;-77
2023/03/03 12:23:06;;;;;;;38.03;21.52;;;13.60;44.90;;;;;;4992771;28;20452;-77
2023/03/03 12:25:45;;;;;;;36.83;20.52;;;13.70;44.70;;;;;;4985101;28;20165;-77
2023/03/03 12:28:17;;;;;;;38.22;21.80;;;13.70;44.50;;;;;;4991120;28;20042;-77
2023/03/03 12:31:15;;;;;;;34.15;19.92;;;13.80;44.70;;;;;;4991857;28;20117;-77
2023/03/03 12:33:52;;;;;;;43.20;21.60;;;13.80;44.50;;;;;;4977333;28;20592;-78
2023/03/03 12:36:29;;;;;;;37.38;21.60;;;13.80;44.60;;;;;;4947520;28;20030;-77
2023/03/03 12:38:54;;;;;;;41.42;23.38;;;13.90;44.60;;;;;;4972625;28;20109;-78
2023/03/03 12:41:32;;;;;;;44.72;24.33;;;13.90;43.90;;;;;;4969157;28;20106;-77
2023/03/03 12:44:16;;;;;;;41.63;23.17;;;13.90;43.40;;;;;;4995099;28;20040;-77
2023/03/03 12:47:24;;;;;;;46.10;21.73;;;13.90;43.60;;;;;;5033657;28;20064;-77
2023/03/03 12:50:07;;;;;;;37.17;21.85;;;13.90;43.50;;;;;;5033829;28;20033;-77
2023/03/03 12:52:51;;;;;;;39.08;20.75;;;13.90;42.90;;;;;;5014089;28;20475;-77
2023/03/03 12:55:29;;;;;;;38.05;21.02;;;13.90;43.50;;;;;;5028918;28;20036;-77
2023/03/03 12:58:13;;;;;;;37.33;21.98;;;13.90;43.60;;;;;;5033589;28;20029;-77
2023/03/03 13:01:04;;;;;;;39.13;19.27;;;13.90;43.50;;;;;;5033084;28;20040;-77
2023/03/03 13:03:41;;;;;;;36.55;21.73;;;13.90;43.50;;;;;;5022073;28;20053;-77